Time;durP1;ratioP1;P1;durP2;ratioP2;P2;SDS_P1;SDS_P2;PMS_P1;PMS_P2;Temp;Humidity;BMP_temperature;BMP_pressure;BME280_temperature;BME280_humidity;BME280_pressure;Samples;Min_cycle;Max_cycle;Signal;HPM_P1;HPM_P2
2022/01/05 00:01:36;;;;;;;1.48;0.90;;;11.70;84.40;;;;;;5114722;28;20092;-56
2022/01/05 00:04:02;;;;;;;0.93;0.70;;;11.60;84.40;;;;;;5114623;28;20046;-54
2022/01/05 00:06:27;;;;;;;1.83;1.00;;;11.60;84.40;;;;;;5114044;28;20414;-55
2022/01/05 00:08:53;;;;;;;1.45;0.73;;;11.60;84.40;;;;;;5114546;28;20035;-54
2022/01/05 00:11:19;;;;;;;2.95;1.00;;;11.60;84.40;;;;;;5114194;28;20047;-55
2022/01/05 00:13:44;;;;;;;0.95;0.50;;;11.60;84.50;;;;;;5113786;28;20171;-52
2022/01/05 00:16:10;;;;;;;0.68;0.68;;;11.60;84.40;;;;;;5114112;28;20044;-56
2022/01/05 00:18:36;;;;;;;1.13;0.45;;;11.60;84.50;;;;;;5113852;28;20047;-55
2022/01/05 00:21:03;;;;;;;1.42;0.70;;;11.60;84.40;;;;;;5114074;28;20040;-55
2022/01/05 00:23:29;;;;;;;2.45;0.98;;;11.60;84.40;;;;;;5113931;28;20046;-55
2022/01/05 00:25:55;;;;;;;2.50;0.73;;;11.60;84.40;;;;;;5113835;28;20043;-55
2022/01/05 00:28:21;;;;;;;1.55;0.60;;;11.60;84.40;;;;;;5113800;28;20032;-56
2022/01/05 00:30:46;;;;;;;2.50;0.85;;;11.60;84.40;;;;;;5114074;28;20044;-56
2022/01/05 00:33:14;;;;;;;3.05;0.70;;;11.60;84.40;;;;;;5113592;28;20119;-55
2022/01/05 00:35:41;;;;;;;1.33;0.75;;;11.60;84.40;;;;;;5113761;28;20130;-52
2022/01/05 00:38:06;;;;;;;2.35;0.77;;;11.60;84.40;;;;;;5113015;28;20406;-56
2022/01/05 00:40:32;;;;;;;2.22;0.70;;;11.60;84.50;;;;;;5113955;28;20127;-56
2022/01/05 00:42:58;;;;;;;1.20;0.73;;;11.60;84.40;;;;;;5114082;28;20035;-55
2022/01/05 00:45:23;;;;;;;1.05;0.73;;;11.60;84.40;;;;;;5113295;28;20031;-55
2022/01/05 00:47:49;;;;;;;1.13;0.70;;;11.60;84.40;;;;;;5113769;28;20185;-55
2022/01/05 00:50:15;;;;;;;2.65;0.90;;;11.60;84.40;;;;;;5113099;28;20042;-56
2022/01/05 00:52:40;;;;;;;0.60;0.60;;;11.60;84.50;;;;;;5113870;28;20040;-56
2022/01/05 00:55:06;;;;;;;1.30;0.70;;;11.60;84.40;;;;;;5113202;28;20476;-55
2022/01/05 00:57:32;;;;;;;1.58;0.77;;;11.60;84.40;;;;;;5112872;28;20504;-55
2022/01/05 00:59:58;;;;;;;2.03;0.90;;;11.50;84.30;;;;;;5113435;28;20035;-55
2022/01/05 01:02:23;;;;;;;0.88;0.68;;;11.60;85.10;;;;;;5113346;28;20043;-54
2022/01/05 01:04:49;;;;;;;1.02;0.60;;;11.60;84.50;;;;;;5113539;28;20059;-55
2022/01/05 01:07:15;;;;;;;1.33;0.52;;;11.50;84.40;;;;;;5094796;28;20196;-52
2022/01/05 01:09:41;;;;;;;3.17;0.70;;;11.50;84.40;;;;;;5128841;27;20387;-53
2022/01/05 01:12:07;;;;;;;1.60;1.13;;;11.50;85.00;;;;;;5113282;28;20042;-55
2022/01/05 01:14:33;;;;;;;1.70;0.75;;;11.50;84.40;;;;;;5121191;27;20043;-56
2022/01/05 01:16:58;;;;;;;3.33;1.05;;;11.50;84.40;;;;;;5133189;27;20463;-54
2022/01/05 01:19:24;;;;;;;1.73;0.80;;;11.60;84.40;;;;;;5119461;27;20097;-55
2022/01/05 01:21:50;;;;;;;0.82;0.63;;;11.50;84.40;;;;;;5112878;28;20526;-56
2022/01/05 01:24:15;;;;;;;0.98;0.70;;;11.50;84.40;;;;;;5113507;28;20071;-51
2022/01/05 01:26:41;;;;;;;2.10;0.93;;;11.50;84.40;;;;;;5112620;28;20043;-55
2022/01/05 01:29:07;;;;;;;1.23;0.63;;;11.50;84.40;;;;;;5113159;28;20046;-56
2022/01/05 01:31:33;;;;;;;1.55;0.65;;;11.50;84.40;;;;;;5112772;28;20035;-55
2022/01/05 01:33:58;;;;;;;1.33;0.68;;;11.50;84.40;;;;;;5112107;28;20439;-55
2022/01/05 01:36:24;;;;;;;1.15;0.60;;;11.50;84.50;;;;;;5113155;28;20398;-56
2022/01/05 01:38:50;;;;;;;1.20;0.93;;;11.50;84.40;;;;;;5113044;28;20040;-55
2022/01/05 01:41:16;;;;;;;1.35;0.70;;;11.50;84.40;;;;;;5112809;28;20051;-55
2022/01/05 01:43:41;;;;;;;2.45;1.15;;;11.60;84.50;;;;;;5112758;28;20161;-56
2022/01/05 01:46:08;;;;;;;1.17;0.90;;;11.50;84.40;;;;;;5112846;28;20485;-55
2022/01/05 01:48:34;;;;;;;2.22;0.80;;;11.50;84.40;;;;;;5111939;28;20459;-56
2022/01/05 01:50:59;;;;;;;0.52;0.50;;;11.50;84.40;;;;;;5112321;28;20047;-56
2022/01/05 01:53:25;;;;;;;1.73;0.73;;;11.50;84.40;;;;;;5112572;28;20046;-56
2022/01/05 01:55:52;;;;;;;2.40;0.80;;;11.50;84.40;;;;;;5112395;28;20135;-55
2022/01/05 01:58:21;;;;;;;1.35;0.88;;;11.50;84.40;;;;;;5112458;28;20480;-54
2022/01/05 02:00:47;;;;;;;1.67;0.90;;;11.50;84.40;;;;;;5112068;28;20454;-53
2022/01/05 02:03:14;;;;;;;1.27;0.65;;;11.50;84.40;;;;;;5112642;28;20480;-55
2022/01/05 02:05:40;;;;;;;1.13;0.60;;;11.50;84.40;;;;;;5111972;28;20055;-55
2022/01/05 02:08:06;;;;;;;1.10;0.80;;;11.50;84.50;;;;;;5112792;28;20040;-56
2022/01/05 02:10:31;;;;;;;1.02;0.68;;;11.50;84.40;;;;;;5113003;28;20093;-55
2022/01/05 02:12:58;;;;;;;1.60;0.80;;;11.50;84.50;;;;;;5111765;28;20047;-57
2022/01/05 02:15:23;;;;;;;1.95;0.80;;;11.50;84.40;;;;;;5112365;28;20051;-56
2022/01/05 02:17:56;;;;;;;2.00;0.90;;;11.50;84.50;;;;;;5112381;28;20093;-50
2022/01/05 02:20:24;;;;;;;0.90;0.80;;;11.50;84.50;;;;;;5111914;28;20055;-56
2022/01/05 02:22:51;;;;;;;2.90;1.02;;;11.50;84.50;;;;;;5093443;28;20052;-55
2022/01/05 02:25:17;;;;;;;0.85;0.70;;;11.50;84.50;;;;;;5112270;28;20042;-51
2022/01/05 02:27:45;;;;;;;2.20;1.02;;;11.40;84.40;;;;;;5112442;28;20051;-55
2022/01/05 02:30:17;;;;;;;1.90;0.90;;;11.50;84.50;;;;;;5111910;28;20039;-55
2022/01/05 02:32:42;;;;;;;2.63;0.80;;;11.50;84.50;;;;;;5111895;28;20096;-55
2022/01/05 02:35:09;;;;;;;1.90;0.63;;;11.50;84.50;;;;;;5093741;28;20437;-56
2022/01/05 02:37:44;;;;;;;1.02;0.80;;;11.50;84.50;;;;;;5111974;28;20052;-52
2022/01/05 02:40:11;;;;;;;;;;;11.50;84.50;;;;;;5072494;28;20048;-55
2022/01/05 02:42:37;;;;;;;1.70;0.88;;;11.40;84.40;;;;;;5071837;28;19927;-53
2022/01/05 02:45:04;;;;;;;1.15;0.98;;;11.40;84.50;;;;;;5072287;28;20433;-55
2022/01/05 02:47:29;;;;;;;3.75;1.20;;;11.40;84.50;;;;;;5075648;28;20056;-55
2022/01/05 02:49:59;;;;;;;2.33;0.77;;;11.50;84.50;;;;;;5075701;28;20307;-55
2022/01/05 02:52:25;;;;;;;3.60;1.02;;;11.50;84.60;;;;;;5074532;28;20040;-56
2022/01/05 02:54:51;;;;;;;1.95;0.82;;;11.50;84.50;;;;;;5074896;28;20040;-55
2022/01/05 02:57:16;;;;;;;2.15;0.90;;;11.40;84.50;;;;;;5074892;28;20041;-54
2022/01/05 02:59:42;;;;;;;1.90;0.70;;;11.40;84.50;;;;;;5074807;28;20036;-55
2022/01/05 03:02:08;;;;;;;1.30;0.60;;;11.50;84.50;;;;;;5075180;28;20047;-55
2022/01/05 03:04:33;;;;;;;1.15;0.82;;;11.40;84.50;;;;;;5075219;28;20040;-56
2022/01/05 03:06:59;;;;;;;1.75;0.90;;;11.50;84.60;;;;;;5075162;28;20483;-50
2022/01/05 03:09:25;;;;;;;1.33;0.90;;;11.50;84.60;;;;;;5074593;28;20045;-56
2022/01/05 03:11:51;;;;;;;2.25;0.80;;;11.40;84.50;;;;;;5074836;28;20044;-56
2022/01/05 03:14:17;;;;;;;1.85;0.85;;;11.40;84.50;;;;;;5074769;28;20056;-53
2022/01/05 03:16:42;;;;;;;1.63;0.90;;;11.40;84.50;;;;;;5074247;28;20060;-54
2022/01/05 03:19:08;;;;;;;1.33;0.70;;;11.50;84.50;;;;;;5053586;28;20049;-54
2022/01/05 03:21:34;;;;;;;2.58;0.93;;;11.50;84.60;;;;;;5074450;28;20032;-56
2022/01/05 03:24:00;;;;;;;1.50;0.82;;;11.30;84.50;;;;;;5074088;28;20511;-56
2022/01/05 03:26:25;;;;;;;1.90;0.80;;;11.40;84.50;;;;;;5074606;28;20040;-55
2022/01/05 03:28:51;;;;;;;2.67;0.95;;;11.40;84.40;;;;;;5074313;28;20106;-55
2022/01/05 03:31:17;;;;;;;3.67;1.25;;;11.50;84.50;;;;;;5074218;28;20385;-49
2022/01/05 03:33:42;;;;;;;2.08;0.98;;;11.40;84.40;;;;;;5074094;28;20044;-56
2022/01/05 03:36:08;;;;;;;2.00;0.98;;;11.40;84.50;;;;;;5074463;28;20040;-53
2022/01/05 03:38:34;;;;;;;1.95;0.93;;;11.50;84.50;;;;;;5082388;28;20044;-55
2022/01/05 03:41:00;;;;;;;2.65;0.90;;;11.40;84.50;;;;;;5094259;28;20139;-53
2022/01/05 03:43:25;;;;;;;2.85;1.00;;;11.40;84.50;;;;;;5095215;28;20090;-55
2022/01/05 03:45:51;;;;;;;1.45;0.93;;;11.40;84.50;;;;;;5094931;28;20107;-55
2022/01/05 03:48:21;;;;;;;1.63;1.00;;;11.40;84.50;;;;;;5076027;28;20490;-56
2022/01/05 03:50:47;;;;;;;2.45;0.93;;;11.40;84.50;;;;;;5094593;28;20040;-55
2022/01/05 03:53:14;;;;;;;1.65;0.80;;;11.40;84.50;;;;;;5094539;28;20039;-55
2022/01/05 03:55:41;;;;;;;3.00;1.00;;;11.50;84.50;;;;;;5093894;28;20036;-56
2022/01/05 03:58:08;;;;;;;2.08;1.08;;;11.40;84.50;;;;;;5093210;28;20051;-56
2022/01/05 04:00:38;;;;;;;1.00;0.70;;;11.40;84.50;;;;;;5094253;28;20119;-56
2022/01/05 04:03:04;;;;;;;2.72;0.90;;;11.40;84.50;;;;;;5094199;28;20552;-54
2022/01/05 04:05:30;;;;;;;1.17;0.75;;;11.40;84.40;;;;;;5093744;28;20131;-55
2022/01/05 04:07:56;;;;;;;1.80;0.95;;;11.40;84.40;;;;;;5094600;28;20036;-56
2022/01/05 04:10:22;;;;;;;2.33;1.00;;;11.40;84.40;;;;;;5094167;28;20047;-56
2022/01/05 04:12:48;;;;;;;2.92;0.80;;;11.40;84.40;;;;;;5093717;28;20391;-55
2022/01/05 04:15:15;;;;;;;1.35;0.65;;;11.40;84.50;;;;;;5113820;28;20044;-57
2022/01/05 04:17:41;;;;;;;3.20;1.17;;;11.40;84.50;;;;;;5114448;28;20073;-55
2022/01/05 04:20:08;;;;;;;2.50;1.30;;;11.40;84.40;;;;;;5114108;28;20062;-55
2022/01/05 04:22:33;;;;;;;1.95;1.00;;;11.40;84.50;;;;;;5113884;28;20097;-55
2022/01/05 04:24:59;;;;;;;4.63;1.02;;;11.40;84.40;;;;;;5113072;28;20040;-48
2022/01/05 04:27:25;;;;;;;1.95;0.77;;;11.50;84.60;;;;;;5113873;28;20047;-55
2022/01/05 04:29:50;;;;;;;2.88;1.25;;;11.40;84.50;;;;;;5114190;28;20126;-52
2022/01/05 04:32:16;;;;;;;2.10;0.98;;;11.40;84.50;;;;;;5113987;28;20126;-55
2022/01/05 04:34:42;;;;;;;1.70;0.88;;;11.40;84.50;;;;;;5113954;28;20064;-55
2022/01/05 04:37:07;;;;;;;3.33;1.20;;;11.40;84.40;;;;;;5113852;28;20509;-55
2022/01/05 04:39:34;;;;;;;2.22;1.00;;;11.40;84.40;;;;;;5113669;28;20044;-56
2022/01/05 04:42:01;;;;;;;1.35;1.10;;;11.40;84.50;;;;;;5113723;28;20047;-56
2022/01/05 04:44:27;;;;;;;1.73;1.00;;;11.40;84.50;;;;;;5113669;28;20035;-51
2022/01/05 04:46:52;;;;;;;2.20;0.85;;;11.40;84.50;;;;;;5113302;28;20043;-55
2022/01/05 04:49:18;;;;;;;1.15;0.88;;;11.40;84.50;;;;;;5113550;28;20054;-54
2022/01/05 04:51:44;;;;;;;2.10;1.08;;;11.40;84.40;;;;;;5113330;28;20062;-55
2022/01/05 04:54:10;;;;;;;1.17;0.82;;;11.50;84.50;;;;;;5113611;28;20039;-55
2022/01/05 04:56:35;;;;;;;1.27;0.95;;;11.40;84.40;;;;;;5112826;28;20132;-55
2022/01/05 04:59:01;;;;;;;2.90;0.70;;;11.40;84.50;;;;;;5113545;28;20075;-56
2022/01/05 05:01:27;;;;;;;2.67;0.90;;;11.40;84.40;;;;;;5112692;28;20047;-56
2022/01/05 05:03:53;;;;;;;2.03;1.00;;;11.40;84.50;;;;;;5113289;28;20387;-56
2022/01/05 05:06:18;;;;;;;1.83;0.80;;;11.40;84.40;;;;;;5112726;28;20058;-56
2022/01/05 05:08:44;;;;;;;2.38;0.90;;;11.40;84.40;;;;;;5113328;28;20090;-56
2022/01/05 05:11:10;;;;;;;1.85;0.82;;;11.50;84.50;;;;;;5113456;28;20087;-56
2022/01/05 05:13:35;;;;;;;1.95;0.98;;;11.40;84.40;;;;;;5113487;28;20032;-55
2022/01/05 05:16:02;;;;;;;2.35;1.00;;;11.40;84.40;;;;;;5112568;28;20134;-55
2022/01/05 05:18:27;;;;;;;2.08;0.82;;;11.40;84.40;;;;;;5112809;28;20066;-56
2022/01/05 05:20:53;;;;;;;1.60;0.90;;;11.40;84.50;;;;;;5112827;28;20139;-56
2022/01/05 05:23:19;;;;;;;1.52;1.00;;;11.40;84.50;;;;;;5113467;28;20051;-55
2022/01/05 05:25:44;;;;;;;1.80;0.85;;;11.40;84.40;;;;;;5112837;28;20036;-56
2022/01/05 05:28:10;;;;;;;3.55;0.82;;;11.40;84.50;;;;;;5112824;28;20061;-56
2022/01/05 05:30:36;;;;;;;2.08;1.02;;;11.40;84.50;;;;;;5112508;28;20047;-55
2022/01/05 05:33:05;;;;;;;2.15;0.90;;;11.40;84.50;;;;;;5112282;28;20096;-53
2022/01/05 05:35:32;;;;;;;2.85;1.15;;;11.40;84.50;;;;;;5112628;28;20067;-55
2022/01/05 05:37:59;;;;;;;2.08;0.98;;;11.40;84.50;;;;;;5112962;28;20463;-54
2022/01/05 05:40:25;;;;;;;1.73;1.02;;;11.40;84.50;;;;;;5112111;28;20047;-55
2022/01/05 05:42:52;;;;;;;4.05;1.00;;;11.40;84.50;;;;;;5113008;28;20123;-56
2022/01/05 05:45:17;;;;;;;4.38;1.02;;;11.40;84.50;;;;;;5113009;28;20040;-56
2022/01/05 05:47:43;;;;;;;0.70;0.70;;;11.40;84.50;;;;;;5113049;28;20104;-56
2022/01/05 05:50:09;;;;;;;2.20;0.85;;;11.40;84.50;;;;;;5112361;28;20036;-55
2022/01/05 05:52:35;;;;;;;1.58;0.98;;;11.40;84.50;;;;;;5112894;28;20039;-56
2022/01/05 05:55:01;;;;;;;2.17;1.17;;;11.40;84.40;;;;;;5112347;28;20050;-56
2022/01/05 05:57:27;;;;;;;2.10;1.00;;;11.40;84.40;;;;;;5112432;28;20043;-55
2022/01/05 05:59:52;;;;;;;1.50;0.95;;;11.40;84.40;;;;;;5112846;28;20043;-56
2022/01/05 06:02:18;;;;;;;1.83;1.00;;;11.40;84.40;;;;;;5112163;28;20056;-52
2022/01/05 06:04:44;;;;;;;3.28;0.98;;;11.40;84.40;;;;;;5112200;28;20055;-54
2022/01/05 06:07:09;;;;;;;1.60;0.90;;;11.40;84.40;;;;;;5112276;28;20054;-55
2022/01/05 06:09:35;;;;;;;1.95;1.00;;;11.40;84.40;;;;;;5112276;28;20047;-54
2022/01/05 06:12:01;;;;;;;2.78;1.00;;;11.40;85.10;;;;;;5112515;28;20050;-54
2022/01/05 06:14:27;;;;;;;1.35;1.05;;;11.40;84.50;;;;;;5112713;28;20044;-55
2022/01/05 06:16:52;;;;;;;3.55;1.27;;;11.30;84.40;;;;;;5112400;28;20064;-55
2022/01/05 06:19:18;;;;;;;1.95;1.02;;;11.40;84.50;;;;;;5112401;28;20046;-55
2022/01/05 06:21:44;;;;;;;2.45;1.23;;;11.40;84.40;;;;;;5115523;28;20035;-55
2022/01/05 06:24:11;;;;;;;1.38;0.65;;;11.40;84.50;;;;;;5116507;28;20053;-55
2022/01/05 06:26:37;;;;;;;3.45;1.30;;;11.40;84.50;;;;;;5115802;28;20047;-54
2022/01/05 06:29:03;;;;;;;1.45;0.95;;;11.40;84.50;;;;;;5098012;28;20051;-55
2022/01/05 06:31:29;;;;;;;1.60;0.80;;;11.30;84.40;;;;;;5116279;28;20039;-55
2022/01/05 06:33:56;;;;;;;3.35;0.95;;;11.40;84.50;;;;;;5118240;27;20399;-54
2022/01/05 06:36:21;;;;;;;4.43;1.17;;;11.40;84.40;;;;;;5129840;27;20425;-51
2022/01/05 06:38:47;;;;;;;2.10;0.90;;;11.30;84.40;;;;;;5116097;28;20035;-55
2022/01/05 06:41:13;;;;;;;2.10;1.00;;;11.40;84.40;;;;;;5115917;28;20185;-53
2022/01/05 06:43:38;;;;;;;1.90;0.93;;;11.40;84.40;;;;;;5116439;28;20088;-55
2022/01/05 06:46:07;;;;;;;1.48;0.90;;;11.30;84.50;;;;;;5116320;28;20100;-55
2022/01/05 06:48:32;;;;;;;1.85;0.98;;;11.30;84.40;;;;;;5116059;28;20043;-55
2022/01/05 06:50:58;;;;;;;2.22;1.10;;;11.40;84.40;;;;;;5116207;28;20160;-54
2022/01/05 06:53:24;;;;;;;2.10;1.10;;;11.40;84.40;;;;;;5115422;28;20512;-54
2022/01/05 06:55:49;;;;;;;1.95;0.98;;;11.40;84.40;;;;;;5097247;28;20054;-54
2022/01/05 06:58:15;;;;;;;1.92;1.02;;;11.40;84.40;;;;;;5115402;28;20036;-55
2022/01/05 07:00:41;;;;;;;2.05;1.08;;;11.30;84.50;;;;;;5115580;28;20035;-55
2022/01/05 07:03:06;;;;;;;1.70;0.90;;;11.30;84.40;;;;;;5116220;28;20040;-55
2022/01/05 07:05:32;;;;;;;1.83;0.90;;;11.30;84.40;;;;;;5115376;28;20035;-55
2022/01/05 07:07:58;;;;;;;1.85;0.95;;;11.40;84.40;;;;;;5097032;28;20423;-55
2022/01/05 07:10:24;;;;;;;3.05;1.08;;;11.30;84.40;;;;;;5115415;28;20114;-56
2022/01/05 07:12:50;;;;;;;2.38;1.33;;;11.40;84.40;;;;;;5115097;28;20142;-55
2022/01/05 07:15:17;;;;;;;1.60;0.82;;;11.30;84.40;;;;;;5114858;28;20039;-55
2022/01/05 07:17:43;;;;;;;1.13;0.77;;;11.30;84.40;;;;;;5115462;28;20395;-52
2022/01/05 07:20:10;;;;;;;1.73;0.90;;;11.30;84.40;;;;;;5115785;28;20040;-52
2022/01/05 07:22:36;;;;;;;1.25;0.70;;;11.30;84.40;;;;;;5115123;28;20075;-54
2022/01/05 07:25:03;;;;;;;1.63;0.88;;;11.40;84.40;;;;;;5114634;28;20047;-52
2022/01/05 07:27:29;;;;;;;1.65;0.93;;;11.30;84.40;;;;;;5131262;27;20574;-55
2022/01/05 07:29:54;;;;;;;2.40;0.80;;;11.40;84.40;;;;;;5115209;28;20115;-54
2022/01/05 07:32:20;;;;;;;2.85;1.08;;;11.40;84.40;;;;;;5114314;28;20126;-56
2022/01/05 07:34:46;;;;;;;1.55;0.80;;;11.30;84.40;;;;;;5115509;28;20079;-56
2022/01/05 07:37:11;;;;;;;2.42;0.80;;;11.40;84.40;;;;;;5115105;28;20094;-55
2022/01/05 07:39:37;;;;;;;1.65;0.88;;;11.40;84.40;;;;;;5114546;28;20043;-55
2022/01/05 07:42:04;;;;;;;1.23;0.80;;;11.40;84.50;;;;;;5114326;28;20096;-54
2022/01/05 07:44:29;;;;;;;1.65;1.08;;;11.30;84.40;;;;;;5114298;28;20039;-56
2022/01/05 07:46:55;;;;;;;2.20;0.98;;;11.30;84.40;;;;;;5114240;28;20536;-51
2022/01/05 07:49:21;;;;;;;6.20;1.98;;;11.30;84.40;;;;;;5115364;28;20537;-55
2022/01/05 07:51:47;;;;;;;7.13;1.70;;;11.30;83.30;;;;;;5115059;28;20165;-53
2022/01/05 07:54:13;;;;;;;4.05;1.67;;;11.20;83.90;;;;;;5115035;28;20474;-53
2022/01/05 07:56:38;;;;;;;8.35;2.22;;;11.10;83.20;;;;;;5114165;28;20043;-50
2022/01/05 07:59:04;;;;;;;7.65;2.28;;;11.10;83.00;;;;;;5115135;28;20038;-52
2022/01/05 08:01:30;;;;;;;5.85;2.35;;;11.10;83.00;;;;;;5115254;28;20048;-54
2022/01/05 08:03:56;;;;;;;9.88;2.58;;;11.00;82.10;;;;;;5113732;28;20092;-52
2022/01/05 08:06:22;;;;;;;7.50;1.85;;;10.80;81.30;;;;;;5115002;28;20044;-54
2022/01/05 08:08:49;;;;;;;5.97;2.10;;;10.70;82.00;;;;;;5114213;28;20046;-54
2022/01/05 08:11:15;;;;;;;7.32;1.80;;;10.70;82.40;;;;;;5114724;28;20070;-54
2022/01/05 08:13:42;;;;;;;7.50;2.25;;;10.70;82.60;;;;;;5114253;28;20047;-53
2022/01/05 08:16:08;;;;;;;6.35;2.22;;;10.80;82.80;;;;;;5114480;28;20047;-54
2022/01/05 08:18:33;;;;;;;4.45;1.73;;;10.80;82.90;;;;;;5113957;28;20369;-54
2022/01/05 08:21:00;;;;;;;4.22;1.48;;;10.90;83.00;;;;;;5114757;28;20032;-54
2022/01/05 08:23:25;;;;;;;7.00;1.83;;;10.90;83.10;;;;;;5114426;28;20088;-53
2022/01/05 08:25:52;;;;;;;5.28;1.60;;;10.90;83.10;;;;;;5114354;28;20044;-55
2022/01/05 08:28:19;;;;;;;5.50;1.92;;;10.90;83.20;;;;;;5113636;28;20035;-55
2022/01/05 08:30:45;;;;;;;4.20;1.67;;;11.00;83.20;;;;;;5114031;28;20092;-52
2022/01/05 08:33:15;;;;;;;5.15;2.08;;;11.00;83.30;;;;;;5114134;28;20118;-54
2022/01/05 08:35:42;;;;;;;5.70;2.22;;;11.00;83.30;;;;;;5114237;28;20498;-55
2022/01/05 08:38:09;;;;;;;4.13;1.80;;;11.00;83.30;;;;;;5113664;28;20040;-53
2022/01/05 08:40:36;;;;;;;5.05;2.03;;;11.10;83.40;;;;;;5133867;27;20047;-55
2022/01/05 08:43:04;;;;;;;6.35;1.70;;;11.10;83.40;;;;;;5128516;27;20036;-54
2022/01/05 08:45:31;;;;;;;2.92;1.63;;;11.10;83.40;;;;;;5113620;28;20054;-54
2022/01/05 08:47:59;;;;;;;3.90;1.60;;;11.10;83.40;;;;;;5114348;28;20085;-52
2022/01/05 08:50:27;;;;;;;5.43;1.60;;;11.10;83.40;;;;;;5112762;28;20356;-54
2022/01/05 08:52:54;;;;;;;5.18;1.70;;;11.20;83.50;;;;;;5113896;28;20036;-54
2022/01/05 08:55:23;;;;;;;3.75;1.85;;;11.10;83.50;;;;;;5114064;28;20058;-54
2022/01/05 08:57:50;;;;;;;4.00;1.88;;;11.10;83.50;;;;;;5113878;28;20047;-55
2022/01/05 09:00:17;;;;;;;4.18;2.10;;;11.20;83.50;;;;;;5113070;28;20444;-55
2022/01/05 09:02:43;;;;;;;3.88;2.08;;;11.20;83.50;;;;;;5113593;28;20044;-54
2022/01/05 09:05:09;;;;;;;5.75;2.00;;;11.20;83.50;;;;;;5113553;28;20036;-55
2022/01/05 09:07:35;;;;;;;4.35;1.88;;;11.20;83.50;;;;;;5113707;28;20047;-55
2022/01/05 09:10:04;;;;;;;4.50;1.40;;;11.20;83.50;;;;;;5113495;28;20078;-54
2022/01/05 09:12:30;;;;;;;4.53;1.88;;;11.20;83.60;;;;;;5113271;28;20054;-55
2022/01/05 09:14:56;;;;;;;4.22;1.80;;;11.20;83.50;;;;;;5095208;28;20104;-54
2022/01/05 09:17:22;;;;;;;3.30;1.50;;;11.20;83.50;;;;;;5112917;28;20116;-54
2022/01/05 09:19:47;;;;;;;5.72;1.42;;;11.20;83.60;;;;;;5113474;28;20185;-53
2022/01/05 09:22:13;;;;;;;3.88;1.88;;;11.20;83.50;;;;;;5095459;28;20360;-55
2022/01/05 09:24:40;;;;;;;4.70;1.63;;;11.20;83.50;;;;;;5113168;28;20495;-55
2022/01/05 09:27:06;;;;;;;2.65;1.20;;;11.20;83.60;;;;;;5113257;28;20083;-55
2022/01/05 09:29:35;;;;;;;4.32;1.70;;;11.20;83.60;;;;;;5112823;28;20051;-55
2022/01/05 09:32:06;;;;;;;2.88;1.50;;;11.30;83.60;;;;;;5112658;28;20394;-54
2022/01/05 09:34:33;;;;;;;2.92;1.52;;;11.20;83.60;;;;;;5113289;28;20043;-55
2022/01/05 09:37:06;;;;;;;5.00;1.40;;;11.20;83.60;;;;;;5113044;28;20047;-55
2022/01/05 09:42:17;;;;;;;3.80;1.67;;;11.20;83.60;;;;;;5092536;28;20047;-54
2022/01/05 09:44:45;;;;;;;4.15;1.42;;;11.20;83.60;;;;;;5092393;28;20043;-55
2022/01/05 09:47:10;;;;;;;3.78;1.60;;;11.20;83.60;;;;;;5092158;28;20493;-51
2022/01/05 09:50:03;;;;;;;3.05;1.30;;;11.30;83.70;;;;;;5092321;28;20093;-55
2022/01/05 09:52:30;;;;;;;2.60;1.60;;;11.20;83.70;;;;;;5111371;28;20044;-55
2022/01/05 09:54:56;;;;;;;4.32;1.40;;;11.20;83.70;;;;;;5112043;28;20044;-54
2022/01/05 09:57:23;;;;;;;2.97;1.30;;;11.30;83.70;;;;;;5112523;28;20130;-54
2022/01/05 09:59:51;;;;;;;3.85;1.40;;;11.20;83.60;;;;;;5112679;28;20499;-52
2022/01/05 10:02:18;;;;;;;3.38;1.20;;;11.20;83.60;;;;;;5112245;28;20476;-52
2022/01/05 10:04:45;;;;;;;3.08;1.63;;;11.20;83.60;;;;;;5112092;28;20040;-56
2022/01/05 10:07:12;;;;;;;1.98;1.00;;;11.20;83.60;;;;;;5112569;28;20040;-53
2022/01/05 10:09:39;;;;;;;4.10;1.30;;;11.20;83.60;;;;;;5112716;28;20388;-55
2022/01/05 10:12:05;;;;;;;2.15;1.35;;;11.20;83.70;;;;;;5112460;28;20152;-55
2022/01/05 10:14:31;;;;;;;3.78;1.33;;;11.20;83.60;;;;;;5094460;28;20373;-53
2022/01/05 10:17:04;;;;;;;2.63;0.98;;;11.30;83.70;;;;;;5112620;28;20086;-55
2022/01/05 10:19:31;;;;;;;1.90;1.00;;;11.20;83.60;;;;;;5112090;28;20048;-55
2022/01/05 10:21:57;;;;;;;3.75;1.27;;;11.20;83.60;;;;;;5112330;28;20048;-54
2022/01/05 10:24:44;;;;;;;3.67;1.40;;;11.30;83.70;;;;;;5112150;28;20459;-55
2022/01/05 10:27:18;;;;;;;3.80;1.50;;;11.20;84.20;;;;;;5112129;28;20040;-56
2022/01/05 10:30:04;;;;;;;3.50;1.20;;;11.30;83.70;;;;;;5093906;28;20044;-56
2022/01/05 10:32:33;;;;;;;3.00;1.27;;;11.20;83.60;;;;;;5112581;28;20179;-55
2022/01/05 10:35:07;;;;;;;2.78;1.00;;;11.30;83.70;;;;;;5112084;28;20036;-54
2022/01/05 10:37:34;;;;;;;4.43;1.40;;;11.20;83.60;;;;;;5110680;28;20066;-55
2022/01/05 10:40:10;;;;;;;2.92;1.27;;;11.20;83.70;;;;;;5112101;28;20128;-55
2022/01/05 10:42:38;;;;;;;3.35;1.33;;;11.20;83.70;;;;;;5111951;28;20047;-55
2022/01/05 10:45:06;;;;;;;2.90;1.05;;;11.10;83.70;;;;;;5112424;28;20039;-55
2022/01/05 10:47:34;;;;;;;4.40;1.45;;;11.20;83.70;;;;;;5112474;28;20059;-54
2022/01/05 10:50:00;;;;;;;2.78;1.25;;;11.30;83.80;;;;;;5112145;28;20090;-55
2022/01/05 10:52:28;;;;;;;2.83;1.52;;;11.20;83.70;;;;;;5104997;28;20051;-53
2022/01/05 10:55:07;;;;;;;2.75;1.20;;;11.20;83.70;;;;;;5088933;28;20139;-54
2022/01/05 10:57:32;;;;;;;2.17;1.00;;;11.20;83.70;;;;;;5088084;28;20484;-54
2022/01/05 10:59:58;;;;;;;2.53;1.10;;;11.20;83.70;;;;;;5087725;28;20066;-52
2022/01/05 11:02:32;;;;;;;2.78;1.20;;;11.20;83.70;;;;;;5088680;28;20078;-54
2022/01/05 11:05:08;;;;;;;2.33;0.98;;;11.20;83.70;;;;;;5108153;28;20143;-54
2022/01/05 11:07:37;;;;;;;;;;;11.20;83.70;;;;;;5112706;28;20054;-51
2022/01/05 11:10:07;;;;;;;1.92;1.05;;;11.20;83.70;;;;;;5112196;28;19924;-51
2022/01/05 11:12:33;;;;;;;3.35;1.00;;;11.20;83.80;;;;;;5111970;28;20044;-51
2022/01/05 11:15:21;;;;;;;2.60;0.93;;;11.20;83.80;;;;;;5111978;28;20047;-54
2022/01/05 11:18:17;;;;;;;1.48;0.88;;;11.30;83.80;;;;;;5112489;28;20058;-54
2022/01/05 11:20:55;;;;;;;;;;;11.30;83.80;;;;;;5105752;28;20504;-54
2022/01/05 11:23:25;;;;;;;4.47;1.10;;;11.20;83.70;;;;;;5111786;28;19923;-53
2022/01/05 11:25:53;;;;;;;2.20;1.38;;;11.30;83.90;;;;;;5111358;28;20053;-53
2022/01/05 11:28:20;;;;;;;3.95;1.38;;;11.20;83.80;;;;;;5112124;28;20039;-54
2022/01/05 11:30:49;;;;;;;3.20;1.45;;;11.30;83.90;;;;;;5112278;28;20071;-51
2022/01/05 11:33:15;;;;;;;3.95;1.40;;;11.20;83.80;;;;;;5112265;28;20047;-53
2022/01/05 11:35:41;;;;;;;2.78;1.10;;;11.20;83.80;;;;;;5101445;28;20059;-54
2022/01/05 11:38:08;;;;;;;3.97;1.20;;;11.20;83.80;;;;;;5091354;28;20040;-54
2022/01/05 11:40:36;;;;;;;3.13;1.40;;;11.20;83.70;;;;;;5089965;28;20512;-54
2022/01/05 11:43:15;;;;;;;2.55;1.00;;;11.30;83.90;;;;;;5091024;28;20139;-55
2022/01/05 11:45:47;;;;;;;5.75;1.48;;;11.30;83.80;;;;;;5109340;28;20111;-54
2022/01/05 11:48:16;;;;;;;2.22;1.40;;;11.30;83.80;;;;;;5092683;28;20056;-53
2022/01/05 11:50:45;;;;;;;3.60;1.20;;;11.30;83.80;;;;;;5110988;28;20122;-55
2022/01/05 11:53:11;;;;;;;2.30;1.10;;;11.30;83.80;;;;;;5110104;28;20424;-54
2022/01/05 11:55:57;;;;;;;2.53;1.00;;;11.30;83.80;;;;;;5110367;28;20053;-55
2022/01/05 11:58:26;;;;;;;2.00;1.20;;;11.30;83.80;;;;;;5111461;28;20192;-54
2022/01/05 12:01:17;;;;;;;2.63;0.98;;;11.30;83.80;;;;;;5127129;27;20122;-49
2022/01/05 12:03:57;;;;;;;4.47;1.40;;;11.30;83.70;;;;;;5111113;28;20484;-54
2022/01/05 12:06:31;;;;;;;2.88;1.13;;;11.30;83.80;;;;;;5092623;28;20801;-55
2022/01/05 12:09:21;;;;;;;4.18;1.05;;;11.20;83.70;;;;;;5110358;28;20429;-53
2022/01/05 12:11:47;;;;;;;2.85;1.63;;;11.30;83.70;;;;;;5110322;28;20036;-55
2022/01/05 12:14:22;;;;;;;2.55;1.20;;;11.30;83.70;;;;;;5110512;28;20504;-54
2022/01/05 12:17:00;;;;;;;1.92;1.30;;;11.30;83.70;;;;;;5110557;28;20122;-52
2022/01/05 12:19:30;;;;;;;3.05;1.15;;;11.30;83.70;;;;;;5109956;28;20178;-55
2022/01/05 12:21:57;;;;;;;3.25;1.27;;;11.30;83.70;;;;;;5110049;28;20043;-52
2022/01/05 12:25:00;;;;;;;2.47;1.17;;;11.30;83.80;;;;;;5110550;28;20154;-54
2022/01/05 12:27:27;;;;;;;2.22;1.30;;;11.30;83.70;;;;;;5109766;28;20079;-55
2022/01/05 12:29:54;;;;;;;1.65;0.90;;;11.30;84.40;;;;;;5113462;28;20389;-55
2022/01/05 12:32:40;;;;;;;2.50;1.00;;;11.30;83.70;;;;;;5114745;28;20028;-55
2022/01/05 12:35:28;;;;;;;1.15;0.85;;;11.20;83.60;;;;;;5114360;28;20048;-55
2022/01/05 12:37:59;;;;;;;1.95;1.23;;;11.30;83.70;;;;;;5113657;28;20399;-56
2022/01/05 12:40:27;;;;;;;2.65;1.17;;;11.30;83.80;;;;;;5113860;28;20075;-52
2022/01/05 12:43:08;;;;;;;3.47;1.20;;;11.30;83.80;;;;;;5113153;28;20056;-55
2022/01/05 12:45:46;;;;;;;1.95;1.05;;;11.30;83.60;;;;;;5113602;28;20123;-55
2022/01/05 12:48:30;;;;;;;1.92;1.10;;;11.30;83.70;;;;;;5114242;28;20156;-55
2022/01/05 12:51:16;;;;;;;3.45;1.33;;;11.30;83.60;;;;;;5113800;28;20043;-54
2022/01/05 12:54:06;;;;;;;4.93;1.52;;;11.30;83.60;;;;;;5113935;28;20035;-55